Latest Coastal Weather Observations for Cape Nelson

IDV60701

Issued at 4:41 am EST Monday 24 July 2017 (issued every 10 minutes, with the page automatically refreshed every 10 minutes)

About coastal observations | Map of coastal stations | Coastal observations for VIC | Marine services | Other Formats
Station Details ID: 090184 Name: CAPE NELSON LIGHTHOUSE Lat: -38.43 Lon: 141.54 Height: 45.4 m
Data from the previous 72 hours. | See also: Recent months at Cape Nelson
Date/Time
EST
Temp
°C
Wind Pressure Rain since
9am
mm
Weather Cloud Vis
km
Sea
Height
m
Swell
Dir  Spd
kts
Gust
kts
hPa Trend Height
m
Period
s
Dir
24/04:30am 12.0 WNW 9 14 1017.1 - 0.6 - - - - - - -
24/04:00am 12.3 W 12 16 1016.9 - 0.6 - - - - - - -
24/03:30am 12.0 W 12 15 1016.8 - 0.6 - - - - - - -
24/03:00am 12.0 W 12 17 1016.7 - 0.6 - - - - - - -
24/02:30am 12.1 W 12 17 1016.8 - 0.6 - - - - - - -
24/02:00am 11.8 W 12 17 1016.7 - 0.6 - - - - - - -
24/01:30am 11.9 WNW 10 16 1016.6 - 0.6 - - - - - - -
24/01:00am 12.2 W 12 17 1016.7 - 0.6 - - - - - - -
24/12:30am 11.9 W 10 15 1016.5 - 0.6 - - - - - - -
24/12:00am 11.5 NNW 8 13 1016.3 - 0.6 - - - - - - -
 
Date/Time
EST
Temp
°C
Wind Pressure Rain since
9am
mm
Weather Cloud Vis
km
Sea
Height
m
Swell
Dir  Spd
kts
Gust
kts
hPa Trend Height
m
Period
s
Dir
23/11:30pm 11.9 WNW 9 16 1016.4 - 0.6 - - - - - - -
23/11:00pm 11.9 NW 9 15 1016.6 - 0.6 - - - - - - -
23/10:30pm 12.0 NNW 8 13 1016.4 - 0.6 - - - - - - -
23/10:00pm 11.9 WNW 9 15 1016.1 - 0.6 - - - - - - -
23/09:30pm 12.0 WNW 10 16 1016.0 - 0.6 - - - - - - -
23/09:00pm 12.0 WNW 8 13 1015.7 - 0.6 - - - - - - -
23/08:30pm 11.8 NW 9 16 1015.5 - 0.6 - - - - - - -
23/08:00pm 11.6 N 7 12 1015.1 - 0.6 - - - - - - -
23/07:30pm 11.6 NNE 8 14 1014.6 - 0.6 - - - - - - -
23/07:00pm 11.5 NE 8 12 1014.3 - 0.6 - - - - - - -
23/06:30pm 11.3 NNE 7 12 1014.0 - 0.6 - - - - - - -
23/06:00pm 11.5 N 7 12 1013.6 - 0.4 Recent precip. - - - - - -
23/05:30pm 12.0 N 7 12 1013.1 - 0.2 - - - - - - -
23/05:00pm 12.0 NNW 9 14 1012.9 - 0.2 - - - - - - -
23/04:30pm 12.5 NW 11 18 1012.5 - 0.2 - - - - - - -
23/04:00pm 12.3 W 17 22 1012.3 - 0.2 - - - - - - -
23/03:36pm 11.6 WNW 14 27 1012.1 - 0.2 - - - - - - -
23/03:30pm 11.9 NNW 12 21 1012.1 - 0.2 - - - - - - -
23/03:00pm 13.0 W 19 24 1011.8 - 0.0 - - - - - - -
23/02:37pm 13.2 W 17 27 1011.4 - 0.0 - - - - - - -
23/02:30pm 13.2 W 17 24 1011.5 - 0.0 - - - - - - -
23/02:11pm 13.7 W 18 28 1011.5 - 0.0 - - - - - - -
23/02:00pm 13.3 W 21 28 1011.5 - 0.0 - - - - - - -
23/01:37pm 13.2 W 16 29 1011.5 - 0.0 - - - - - - -
23/01:30pm 13.3 W 17 26 1011.6 - 0.0 - - - - - - -
23/01:07pm 13.1 W 18 28 1011.7 - 0.0 - - - - - - -
23/01:00pm 13.0 W 22 28 1011.6 - 0.0 - - - - - - -
23/12:42pm 13.5 W 17 27 1011.6 - 0.0 - - - - - - -
23/12:30pm 13.7 W 17 25 1011.7 - 0.0 - - - - - - -
23/12:21pm 13.7 W 18 28 1011.8 - 0.0 - - - - - - -
23/12:00pm 13.6 W 20 27 1011.9 - 0.0 - - - - - - -
23/11:30am 13.6 W 19 26 1011.8 - 0.0 - - - - - - -
23/11:00am 13.7 W 20 29 1011.7 - 0.0 - - - - - - -
23/10:53am 13.4 W 19 29 1011.6 - 0.0 - - - - - - -
23/10:30am 13.3 W 20 27 1011.5 - 0.0 - - - - - - -
23/10:00am 13.3 W 21 28 1011.2 - 0.0 - - - - - - -
23/09:30am 13.3 W 19 27 1010.9 - 0.0 - - - - - - -
23/09:00am 13.0 W 22 29 1010.6 - 6.6 Recent precip. - - - - - -
23/08:53am 12.7 W 19 29 1010.6 - 6.6 - - - - - - -
23/08:30am 12.0 WNW 15 22 1010.4 - 6.4 - - - - - - -
23/08:17am 12.2 W 16 27 1010.2 - 6.4 - - - - - - -
23/08:00am 12.3 W 17 26 1010.1 - 6.4 - - - - - - -
23/07:45am 12.2 WNW 17 27 1010.0 - 6.2 - - - - - - -
23/07:30am 12.1 WNW 18 25 1010.0 - 4.2 - - - - - - -
23/07:00am 12.2 W 21 29 1009.6 - 2.6 - - - - - - -
23/06:38am 12.9 W 17 28 1009.3 - 1.8 - - - - - - -
23/06:30am 12.7 W 17 25 1009.4 - 1.8 - - - - - - -
23/06:00am 12.8 W 22 34 1009.1 - 1.6 - - - - - - -
23/05:46am 13.5 W 21 31 1009.0 - 1.6 - - - - - - -
23/05:30am 13.5 W 22 30 1009.0 - 1.6 - - - - - - -
23/05:10am 13.0 WNW 20 30 1008.9 - 1.6 - - - - - - -
23/05:00am 12.7 WNW 21 28 1008.9 - 1.6 - - - - - - -
23/04:30am 12.5 WNW 23 31 1008.8 - 1.6 - - - - - - -
23/04:07am 12.9 WNW 20 30 1008.6 - 1.6 - - - - - - -
23/04:00am 12.9 WNW 21 29 1008.7 - 1.6 - - - - - - -
23/03:30am 12.4 W 18 31 1008.9 - 1.4 - - - - - - -
23/03:24am 11.3 WNW 17 31 1009.0 - 1.4 - - - - - - -
23/03:00am 11.7 NW 16 21 1009.0 - 1.4 Recent precip. - - - - - -
23/02:30am 11.9 NW 14 23 1009.1 - 1.4 - - - - - - -
23/02:18am 12.0 NW 16 26 1009.1 - 1.0 - - - - - - -
23/02:00am 12.0 NW 17 24 1008.9 - 0.2 - - - - - - -
23/01:30am 11.5 NW 19 26 1008.7 - 0.2 - - - - - - -
23/01:00am 11.9 NW 19 26 1009.0 - 0.0 - - - - - - -
23/12:54am 12.1 NW 21 31 1009.1 - 0.0 - - - - - - -
23/12:30am 12.5 NW 20 27 1009.2 - 0.0 - - - - - - -
23/12:00am 12.8 NW 21 33 1009.2 - 0.0 - - - - - - -
 
Date/Time
EST
Temp
°C
Wind Pressure Rain since
9am
mm
Weather Cloud Vis
km
Sea
Height
m
Swell
Dir  Spd
kts
Gust
kts
hPa Trend Height
m
Period
s
Dir
22/11:43pm 13.1 NW 24 37 1008.9 - 0.0 - - - - - - -
22/11:40pm 13.1 NW 23 37 1008.9 - 0.0 - - - - - - -
22/11:37pm 12.9 NW 20 30 1009.1 - 0.0 - - - - - - -
22/11:30pm 12.6 NW 18 26 1009.1 - 0.0 - - - - - - -
22/11:00pm 13.0 NNW 17 23 1008.9 - 0.0 - - - - - - -
22/10:30pm 12.7 NNW 17 27 1008.9 - 0.0 - - - - - - -
22/10:00pm 13.2 NNW 17 26 1009.1 - 0.0 - - - - - - -
22/09:30pm 12.8 NNW 17 27 1009.0 - 0.0 - - - - - - -
22/09:07pm 12.7 NNW 16 26 1008.9 - 0.0 - - - - - - -
22/09:00pm 12.7 NNW 16 24 1008.9 - 0.0 - - - - - - -
22/08:30pm 12.6 NNW 16 23 1009.2 - 0.0 - - - - - - -
22/08:00pm 12.6 NNW 14 19 1009.7 - 0.0 - - - - - - -
22/07:30pm 12.8 NNW 14 22 1009.9 - 0.0 - - - - - - -
22/07:00pm 13.0 NNW 13 20 1010.0 - 0.0 - - - - - - -
22/06:30pm 13.2 NNW 13 19 1009.9 - 0.0 - - - - - - -
22/06:00pm 13.3 NNW 12 18 1009.7 - 0.0 - - - - - - -
22/05:30pm 13.9 NNW 12 17 1009.7 - 0.0 - - - - - - -
22/05:00pm 14.6 NNW 13 19 1009.7 - 0.0 - - - - - - -
22/04:30pm 15.3 NNW 13 20 1009.9 - 0.0 - - - - - - -
22/04:00pm 15.8 NNW 14 23 1009.9 - 0.0 - - - - - - -
22/03:30pm 16.5 NNW 15 22 1009.8 - 0.0 - - - - - - -
22/03:08pm 16.7 NNW 15 25 1010.0 - 0.0 - - - - - - -
22/03:00pm 16.6 NNW 16 21 1009.9 - 0.0 - - - - - - -
22/02:30pm 16.5 NNW 15 22 1010.1 - 0.0 - - - - - - -
22/02:00pm 16.4 NNW 16 24 1010.6 - 0.0 - - - - - - -
22/01:54pm 16.5 NNW 15 25 1010.8 - 0.0 - - - - - - -
22/01:30pm 16.3 NNW 16 22 1011.2 - 0.0 - - - - - - -
22/01:00pm 16.2 NNW 16 25 1011.6 - 0.0 - - - - - - -
22/12:30pm 15.7 NNW 16 25 1012.1 - 0.0 - - - - - - -
22/12:01pm 15.1 NNW 16 26 1012.6 - 0.0 - - - - - - -
22/12:00pm 15.0 NNW 17 26 1012.6 - 0.0 - - - - - - -
22/11:39am 14.6 NNW 17 28 1012.9 - 0.0 - - - - - - -
22/11:30am 14.3 NNW 17 25 1013.0 - 0.0 - - - - - - -
22/11:17am 14.0 NNW 17 27 1013.1 - 0.0 - - - - - - -
22/11:00am 13.8 NNW 16 24 1013.3 - 0.0 - - - - - - -
22/10:30am 13.2 NNW 17 27 1013.7 - 0.0 - - - - - - -
22/10:20am 13.0 NNW 17 27 1013.7 - 0.0 - - - - - - -
22/10:00am 12.5 NNW 17 24 1013.8 - 0.0 - - - - - - -
22/09:41am 12.1 NNW 16 27 1013.9 - 0.0 - - - - - - -
22/09:30am 11.8 NNW 17 26 1014.0 - 0.0 - - - - - - -
22/09:18am 11.2 NNW 16 26 1014.0 - 0.0 - - - - - - -
22/09:00am 10.5 NNW 15 23 1014.0 - 0.0 - - - - - - -
22/08:30am 10.4 NNW 15 21 1014.1 - 0.0 - - - - - - -
22/08:02am 10.1 N 16 26 1013.9 - 0.0 - - - - - - -
22/08:00am 10.1 N 15 22 1013.9 - 0.0 - - - - - - -
22/07:30am 9.9 N 15 24 1013.8 - 0.0 - - - - - - -
22/07:00am 10.2 N 17 24 1013.9 - 0.0 - - - - - - -
22/06:30am 10.3 N 18 29 1013.7 - 0.0 - - - - - - -
22/06:05am 10.2 N 17 27 1013.7 - 0.0 - - - - - - -
22/06:00am 10.4 N 17 24 1013.8 - 0.0 - - - - - - -
22/05:33am 10.6 N 17 27 1013.9 - 0.0 - - - - - - -
22/05:30am 10.6 N 18 27 1014.0 - 0.0 - - - - - - -
22/05:00am 10.7 N 18 29 1014.1 - 0.0 - - - - - - -
22/04:30am 10.8 N 19 26 1014.7 - 0.0 - - - - - - -
22/04:02am 10.7 N 17 27 1015.0 - 0.0 - - - - - - -
22/04:00am 10.7 N 17 26 1015.1 - 0.0 - - - - - - -
22/03:30am 10.7 NNW 18 28 1015.1 - 0.0 - - - - - - -
22/03:00am 10.4 NNW 18 25 1015.5 - 0.0 - - - - - - -
22/02:36am 10.3 NNW 17 27 1015.4 - 0.0 - - - - - - -
22/02:30am 10.1 NNW 16 25 1015.4 - 0.0 - - - - - - -
22/02:00am 9.6 NNW 15 22 1015.8 - 0.0 - - - - - - -
22/01:30am 9.7 NNW 19 27 1015.7 - 0.0 - - - - - - -
22/01:00am 9.4 N 19 30 1015.3 - 0.0 - - - - - - -
22/12:31am 9.3 N 18 28 1016.4 - 0.0 - - - - - - -
22/12:30am 9.3 N 18 27 1016.4 - 0.0 - - - - - - -
22/12:00am 8.7 NNW 16 22 1017.2 - 0.0 - - - - - - -
 
Date/Time
EST
Temp
°C
Wind Pressure Rain since
9am
mm
Weather Cloud Vis
km
Sea
Height
m
Swell
Dir  Spd
kts
Gust
kts
hPa Trend Height
m
Period
s
Dir
21/11:30pm 8.5 N 14 24 1017.4 - 0.0 - - - - - - -
21/11:00pm 7.7 N 15 23 1017.8 - 0.0 - - - - - - -
21/10:30pm 7.6 N 12 19 1017.7 - 0.0 - - - - - - -
21/10:00pm 7.8 NNE 12 17 1018.2 - 0.0 - - - - - - -
21/09:30pm 8.3 N 12 18 1018.7 - 0.0 - - - - - - -
21/09:00pm 8.8 N 14 22 1019.0 - 0.0 - - - - - - -
21/08:30pm 8.7 N 14 21 1019.0 - 0.0 - - - - - - -
21/08:00pm 8.8 N 12 19 1019.1 - 0.0 - - - - - - -
21/07:30pm 8.8 N 11 15 1019.2 - 0.0 - - - - - - -
21/07:00pm 8.7 N 8 12 1019.5 - 0.0 - - - - - - -
21/06:30pm 8.5 N 7 10 1019.4 - 0.0 - - - - - - -
21/06:00pm 9.1 N 6 8 1019.4 - 0.0 - - - - - - -
21/05:30pm 9.8 N 6 8 1019.2 - 0.0 - - - - - - -
21/05:00pm 10.8 N 8 12 1019.2 - 0.0 - - - - - - -
21/04:30pm 11.6 N 8 13 1019.0 - 0.0 - - - - - - -
21/04:00pm 12.1 NNW 11 16 1018.9 - 0.0 - - - - - - -
21/03:30pm 13.5 N 9 14 1019.1 - 0.0 - - - - - - -
21/03:00pm 13.8 NNW 10 15 1019.4 - 0.0 - - - - - - -
21/02:30pm 13.7 NNW 10 17 1019.5 - 0.0 - - - - - - -
21/02:00pm 13.7 N 10 16 1019.9 - 0.0 - - - - - - -
21/01:30pm 13.6 NNW 11 16 1020.6 - 0.0 - - - - - - -
21/01:00pm 13.8 N 9 17 1021.0 - 0.0 - - - - - - -
21/12:30pm 13.1 N 11 15 1021.5 - 0.0 - - - - - - -
21/12:00pm 11.8 NNW 13 20 1022.2 - 0.0 - - - - - - -
21/11:30am 11.1 N 13 19 1022.7 - 0.0 - - - - - - -
21/11:00am 10.3 N 14 21 1023.2 - 0.0 - - - - - - -
21/10:30am 9.2 N 14 21 1023.3 - 0.0 - - - - - - -
21/10:00am 7.3 N 13 19 1023.4 - 0.0 - - - - - - -
21/09:30am 8.2 N 12 19 1023.3 - 0.0 - - - - - - -
21/09:00am 7.6 N 10 14 1023.1 - 0.0 - - - - - - -
21/08:30am 6.0 N 8 11 1023.2 - 0.0 - - - - - - -
21/08:00am 6.7 NNE 8 11 1022.9 - 0.0 - - - - - - -
21/07:30am 6.7 N 9 13 1022.7 - 0.0 - - - - - - -
21/07:00am 7.1 N 9 13 1022.2 - 0.0 - - - - - - -
21/06:30am 6.5 N 10 14 1022.4 - 0.0 - - - - - - -
21/06:00am 5.6 N 9 12 1022.6 - 0.0 - - - - - - -
21/05:30am 5.1 N 8 10 1022.5 - 0.0 - - - - - - -
21/05:00am 4.5 N 8 9 1022.2 - 0.0 - - - - - - -

Other Formats:

Comma delimited format used in spreadsheet applications
http://www.bom.gov.au/fwo/IDV60701/IDV60701.94826.axf

JavaScript Object Notation format (JSON) in row-major order
http://www.bom.gov.au/fwo/IDV60701/IDV60701.94826.json